Latest Weather Observations for Point Perpendicular

IDN60801

Issued at 7:33 am EST Sunday 26 April 2015 (issued every 30 minutes, with the page automatically refreshed every 10 minutes)

About weather observations | Map of weather stations | Latest weather observations for NSW | Other Formats
Station Details ID: 068151 Name: POINT PERPENDICULAR AWS Lat: -35.09 Lon: 150.80 Height: 85.0 m
Data from the previous 72 hours. | See also: Recent months at Point Perpendicular
Date/Time
EST
Temp
°C
App
Temp
°C
Dew
Point
Rel
Hum
%
Delta-T
°C
Wind Press
QNH
hPa
Press
MSL
hPa
Rain
since 9 am
mm
Dir
 
Spd
km/h
Gust
km/h
Spd
kts
Gust
kts
26/07:30am 13.0 10.2 11.4 90 0.9 W 17 26 9 14 1007.3 1007.1 32.8
26/07:00am 13.0 10.3 11.6 91 0.7 W 17 26 9 14 1007.1 1006.9 31.8
26/06:30am 13.2 10.0 11.8 91 0.8 WSW 20 30 11 16 1006.7 1006.5 31.4
26/06:00am 13.8 10.8 12.4 91 0.8 SW 20 32 11 17 1006.6 1006.4 30.4
26/05:30am 14.2 10.4 11.2 82 1.6 SW 22 35 12 19 1006.2 1006.0 29.0
26/05:00am 14.3 10.9 11.3 82 1.6 WSW 20 30 11 16 1006.1 1005.9 29.0
26/04:30am 13.9 10.5 11.1 83 1.5 WSW 20 33 11 18 1006.1 1005.9 29.0
26/04:00am 13.7 11.0 11.6 87 1.1 WSW 17 26 9 14 1006.2 1006.0 29.0
26/03:30am 13.9 11.2 11.8 87 1.1 WSW 17 24 9 13 1006.4 1006.2 29.0
26/03:00am 14.0 10.9 11.7 86 1.2 WSW 19 30 10 16 1006.6 1006.4 29.0
26/02:30am 14.5 12.5 11.6 83 1.6 W 13 20 7 11 1006.5 1006.3 28.8
26/02:00am 14.6 13.2 12.3 86 1.3 W 11 17 6 9 1006.7 1006.5 28.8
26/01:30am 14.6 13.3 12.6 88 1.1 WSW 11 17 6 9 1006.7 1006.5 28.8
26/01:00am 14.5 13.4 13.0 91 0.8 SW 11 17 6 9 1006.9 1006.7 28.8
26/12:30am 14.3 12.8 13.0 92 0.7 SW 13 20 7 11 1006.7 1006.5 28.8
26/12:00am 14.4 13.2 12.8 90 0.9 SW 11 15 6 8 1007.0 1006.8 28.8
 
Date/Time
EST
Temp
°C
App
Temp
°C
Dew
Point
Rel
Hum
%
Delta-T
°C
Wind Press
QNH
hPa
Press
MSL
hPa
Rain
since 9 am
mm
Dir
 
Spd
km/h
Gust
km/h
Spd
kts
Gust
kts
25/11:30pm 14.9 13.8 13.1 89 1.0 SSW 11 15 6 8 1007.5 1007.3 28.8
25/11:00pm 14.8 14.1 13.3 91 0.8 SW 9 15 5 8 1007.8 1007.6 28.8
25/10:30pm 15.1 15.3 14.1 94 0.6 S 6 9 3 5 1008.2 1008.0 28.6
25/10:00pm 14.7 14.7 13.6 93 0.6 W 6 9 3 5 1008.3 1008.1 28.4
25/09:30pm 14.2 13.4 12.9 92 0.7 SW 9 13 5 7 1008.2 1008.0 28.4
25/09:00pm 14.8 14.5 13.3 91 0.8 SW 7 11 4 6 1008.2 1008.0 28.2
25/08:30pm 15.0 14.3 13.2 89 1.0 W 9 13 5 7 1008.5 1008.3 28.2
25/08:00pm 14.8 13.7 12.1 84 1.5 NW 9 13 5 7 1008.8 1008.6 28.2
25/07:30pm 15.5 14.9 12.3 81 1.8 SW 7 11 4 6 1008.0 1007.8 28.2
25/07:00pm 15.8 15.2 12.4 80 1.9 WSW 7 11 4 6 1007.8 1007.6 28.0
25/06:30pm 15.5 14.9 12.4 82 1.7 WSW 7 9 4 5 1007.8 1007.6 28.0
25/06:00pm 14.8 14.4 13.0 89 1.0 SE 7 9 4 5 1007.2 1007.0 28.0
25/05:30pm 14.5 13.9 13.4 93 0.6 SSE 9 13 5 7 1006.9 1006.7 28.0
25/05:00pm 13.9 13.1 13.0 94 0.5 SW 9 13 5 7 1007.2 1007.0 28.0
25/04:30pm 14.5 10.5 13.0 91 0.8 WNW 26 46 14 25 1006.7 1006.5 26.4
25/04:28pm 14.1 9.6 12.5 90 0.9 WNW 28 46 15 25 1006.8 1006.6 26.2
25/04:18pm 15.2 10.9 12.0 81 1.7 WNW 26 43 14 23 1006.0 1005.8 11.4
25/04:00pm 19.1 18.8 15.4 79 2.2 NW 11 15 6 8 1005.4 1005.2 0.2
25/03:30pm 19.1 19.5 15.4 79 2.2 S 7 11 4 6 1005.5 1005.3 0.0
25/03:00pm 19.1 19.0 15.0 77 2.4 SSE 9 13 5 7 1004.9 1004.7 0.0
25/02:30pm 19.2 18.4 14.0 72 3.0 S 11 17 6 9 1005.5 1005.3 0.0
25/02:00pm 20.7 19.5 14.1 66 3.9 SE 13 20 7 11 1005.1 1004.9 0.0
25/01:30pm 20.7 19.8 13.6 64 4.1 SSE 11 17 6 9 1005.7 1005.5 0.0
25/01:00pm 20.0 19.2 13.0 64 4.0 S 9 15 5 8 1006.3 1006.1 0.0
25/12:30pm 19.7 18.3 12.2 62 4.2 S 11 15 6 8 1006.7 1006.5 0.0
25/12:00pm 19.9 18.3 11.7 59 4.6 S 11 17 6 9 1006.9 1006.7 0.0
25/11:30am 20.0 18.3 12.5 62 4.2 WSW 13 17 7 9 1007.5 1007.3 0.0
25/11:00am 19.8 18.7 10.5 55 5.1 SSW 7 15 4 8 1007.4 1007.2 0.0
25/10:30am 19.5 18.6 10.5 56 4.9 W 6 11 3 6 1007.6 1007.4 0.0
25/10:00am 18.8 17.7 10.6 59 4.4 W 7 11 4 6 1007.6 1007.4 0.0
25/09:30am 17.6 16.6 12.3 71 2.9 W 9 13 5 7 1007.7 1007.5 0.0
25/09:00am 16.6 15.1 11.9 74 2.6 WNW 11 22 6 12 1007.8 1007.6 0.0
25/08:30am 17.0 15.3 12.3 74 2.6 WNW 13 17 7 9 1007.8 1007.6 0.0
25/08:00am 15.7 14.3 12.3 80 1.9 NW 11 15 6 8 1007.6 1007.4 0.0
25/07:30am 15.6 13.8 12.0 79 2.0 WNW 13 17 7 9 1007.4 1007.2 0.0
25/07:00am 15.2 13.4 12.0 81 1.7 WNW 13 15 7 8 1007.2 1007.0 0.0
25/06:30am 15.0 13.1 11.8 81 1.7 NW 13 15 7 8 1006.9 1006.7 0.0
25/06:00am 15.2 13.6 11.6 79 2.0 NW 11 15 6 8 1006.6 1006.4 0.0
25/05:30am 15.5 13.5 11.5 77 2.2 WNW 13 17 7 9 1006.3 1006.1 0.0
25/05:00am 15.3 13.5 12.1 81 1.8 NW 13 20 7 11 1006.1 1005.9 0.0
25/04:30am 15.5 13.6 11.7 78 2.1 NW 13 17 7 9 1006.0 1005.8 0.0
25/04:00am 16.0 14.9 11.8 76 2.3 NW 9 13 5 7 1005.9 1005.7 0.0
25/03:30am 16.5 14.7 12.1 75 2.4 NW 13 17 7 9 1005.6 1005.4 0.0
25/03:00am 16.3 14.6 12.5 78 2.1 NW 13 17 7 9 1005.7 1005.5 0.0
25/02:30am 16.5 15.3 12.7 78 2.1 NW 11 15 6 8 1005.8 1005.6 0.0
25/02:00am 16.7 15.8 12.7 77 2.2 NNW 9 11 5 6 1006.1 1005.9 0.0
25/01:30am 16.8 15.9 12.5 76 2.4 NW 9 11 5 6 1006.3 1006.1 0.0
25/01:00am 17.1 15.5 12.8 76 2.4 WNW 13 17 7 9 1006.4 1006.2 0.0
25/12:30am 17.5 16.2 12.4 72 2.8 WNW 11 13 6 7 1006.5 1006.3 0.0
25/12:00am 17.5 16.2 12.6 73 2.7 NW 11 13 6 7 1006.6 1006.4 0.0
 
Date/Time
EST
Temp
°C
App
Temp
°C
Dew
Point
Rel
Hum
%
Delta-T
°C
Wind Press
QNH
hPa
Press
MSL
hPa
Rain
since 9 am
mm
Dir
 
Spd
km/h
Gust
km/h
Spd
kts
Gust
kts
24/11:30pm 17.0 15.7 12.5 75 2.5 NNW 11 13 6 7 1006.7 1006.5 0.0
24/11:00pm 17.0 16.1 12.5 75 2.5 N 9 11 5 6 1006.6 1006.4 0.0
24/10:30pm 18.3 17.4 12.5 69 3.2 NW 9 13 5 7 1006.6 1006.4 0.0
24/10:00pm 18.5 17.4 12.0 66 3.6 NW 9 11 5 6 1006.5 1006.3 0.0
24/09:30pm 18.2 17.2 12.4 69 3.2 NW 9 13 5 7 1006.5 1006.3 0.0
24/09:00pm 19.0 17.9 12.0 64 3.9 WNW 9 11 5 6 1006.4 1006.2 0.0
24/08:30pm 19.1 18.5 12.4 65 3.8 NW 7 9 4 5 1006.3 1006.1 0.0
24/08:00pm 19.3 18.0 12.6 65 3.8 WNW 11 17 6 9 1006.0 1005.8 0.0
24/07:30pm 19.4 18.2 12.7 65 3.8 NW 11 11 6 6 1005.8 1005.6 0.0
24/07:00pm 19.4 18.2 12.7 65 3.8 WNW 11 11 6 6 1005.7 1005.5 0.0
24/06:30pm 19.5 18.6 12.7 65 3.8 NW 9 11 5 6 1005.4 1005.2 0.0
24/06:00pm 20.0 19.7 13.2 65 3.9 WNW 7 11 4 6 1005.0 1004.8 0.0
24/05:30pm 20.3 19.2 13.0 63 4.2 WNW 11 15 6 8 1004.7 1004.5 0.0
24/05:00pm 20.5 19.6 13.7 65 3.9 WNW 11 17 6 9 1004.4 1004.2 0.0
24/04:30pm 20.6 19.4 14.0 66 3.8 WNW 13 22 7 12 1004.2 1004.0 0.0
24/04:00pm 21.6 19.0 13.2 59 4.9 WNW 19 30 10 16 1004.0 1003.8 0.0
24/03:30pm 22.5 19.9 13.3 56 5.3 W 19 30 10 16 1003.8 1003.6 0.0
24/03:00pm 23.1 21.1 13.8 55 5.5 WNW 17 28 9 15 1003.7 1003.5 0.0
24/02:30pm 23.3 22.2 15.4 61 4.8 NNW 15 22 8 12 1003.7 1003.5 0.0
24/02:00pm 22.8 21.2 15.9 65 4.2 N 19 26 10 14 1003.8 1003.6 0.0
24/01:30pm 22.6 21.8 16.2 67 3.9 N 15 20 8 11 1004.0 1003.8 0.0
24/01:00pm 22.0 21.5 15.8 68 3.7 N 13 20 7 11 1004.2 1004.0 0.0
24/12:30pm 21.9 20.7 15.0 65 4.1 N 15 24 8 13 1004.7 1004.5 0.0
24/12:00pm 22.6 21.9 15.4 64 4.3 N 13 24 7 13 1005.1 1004.9 0.0
24/11:30am 20.9 20.3 14.5 67 3.8 N 11 20 6 11 1005.4 1005.2 0.0
24/11:00am 20.2 19.3 14.8 71 3.2 N 13 20 7 11 1005.8 1005.6 0.0
24/10:30am 20.9 19.9 14.5 67 3.8 NNW 13 24 7 13 1006.0 1005.8 0.0
24/10:00am 20.0 20.1 16.4 80 2.2 N 11 15 6 8 1006.3 1006.1 0.0
24/09:30am 18.8 18.6 15.7 82 1.8 N 11 15 6 8 1006.9 1006.7 0.0
24/09:00am 17.8 17.3 15.8 88 1.2 N 13 17 7 9 1007.1 1006.9 0.0
24/08:30am 16.6 16.9 15.1 91 0.9 NNW 7 11 4 6 1007.3 1007.1 0.0
24/08:00am 16.6 16.4 14.8 89 1.0 NNW 9 15 5 8 1007.0 1006.8 0.0
24/07:30am 16.1 16.0 15.0 93 0.6 NW 9 13 5 7 1006.9 1006.7 0.0
24/07:00am 15.7 15.5 14.7 94 0.6 NW 9 11 5 6 1006.9 1006.7 0.0
24/06:30am 15.8 15.7 15.0 95 0.5 NW 9 13 5 7 1006.9 1006.7 0.0
24/06:00am 15.7 15.7 15.2 97 0.3 NW 9 11 5 6 1006.8 1006.6 0.0
24/05:30am 15.5 15.0 15.0 97 0.3 NW 11 15 6 8 1006.8 1006.6 0.0
24/05:00am 15.1 14.9 14.8 98 0.2 NW 9 11 5 6 1007.0 1006.8 0.0
24/04:30am 15.1 14.9 14.8 98 0.2 NW 9 11 5 6 1007.2 1007.0 0.0
24/04:00am 15.1 15.4 14.9 99 0.1 NW 7 9 4 5 1007.3 1007.1 0.0
24/03:30am 15.1 14.6 14.9 99 0.1 NW 11 15 6 8 1007.5 1007.3 0.0
24/03:00am 15.1 14.6 14.9 99 0.1 NW 11 13 6 7 1007.6 1007.4 0.0
24/02:30am 15.0 14.8 14.8 99 0.1 NW 9 11 5 6 1007.9 1007.7 0.0
24/02:00am 15.2 15.1 15.0 99 0.1 NW 9 11 5 6 1007.9 1007.7 0.0
24/01:30am 15.6 15.6 15.1 97 0.3 NW 9 11 5 6 1008.2 1008.0 0.0
24/01:00am 16.8 17.9 16.5 98 0.2 WNW 6 9 3 5 1008.5 1008.3 0.0
24/12:30am 16.8 17.3 16.5 98 0.2 WNW 9 11 5 6 1008.8 1008.6 0.0
24/12:00am 17.0 17.6 16.7 98 0.2 W 9 9 5 5 1009.0 1008.8 0.0
 
Date/Time
EST
Temp
°C
App
Temp
°C
Dew
Point
Rel
Hum
%
Delta-T
°C
Wind Press
QNH
hPa
Press
MSL
hPa
Rain
since 9 am
mm
Dir
 
Spd
km/h
Gust
km/h
Spd
kts
Gust
kts
23/11:30pm 17.1 17.7 16.8 98 0.2 W 9 11 5 6 1009.3 1009.1 0.0
23/11:00pm 17.4 18.1 17.1 98 0.2 WNW 9 11 5 6 1009.7 1009.5 0.0
23/10:30pm 17.8 19.1 17.5 98 0.2 WSW 7 9 4 5 1010.0 1009.8 0.0
23/10:00pm 17.8 19.2 17.3 97 0.3 SW 6 7 3 4 1010.3 1010.1 0.0
23/09:30pm 18.1 19.3 17.3 95 0.5 W 7 7 4 4 1010.7 1010.5 0.0
23/09:00pm 18.6 19.6 16.8 89 1.1 W 7 9 4 5 1010.9 1010.7 0.0
23/08:30pm 19.0 19.9 16.2 84 1.7 SSE 6 9 3 5 1010.9 1010.7 0.0
23/08:00pm 19.0 19.8 16.4 85 1.6 S 7 9 4 5 1010.7 1010.5 0.0
23/07:30pm 19.1 19.7 16.7 86 1.5 SSE 9 11 5 6 1010.6 1010.4 0.0
23/07:00pm 19.2 19.6 16.2 83 1.8 SSE 9 13 5 7 1010.6 1010.4 0.0
23/06:30pm 19.5 19.8 16.9 85 1.6 SSE 11 15 6 8 1010.4 1010.2 0.0
23/06:00pm 19.5 20.3 17.3 87 1.3 S 9 15 5 8 1010.2 1010.0 0.0
23/05:30pm 19.5 20.3 17.3 87 1.3 SSW 9 13 5 7 1009.9 1009.7 0.0
23/05:00pm 19.6 19.9 17.0 85 1.6 SSW 11 15 6 8 1009.8 1009.6 0.0
23/04:30pm 19.8 19.7 17.0 84 1.7 S 13 17 7 9 1009.9 1009.7 0.0
23/04:00pm 20.2 20.7 17.4 84 1.7 S 11 17 6 9 1009.9 1009.7 0.0
23/03:30pm 20.2 20.4 17.6 85 1.6 S 13 20 7 11 1009.8 1009.6 0.0
23/03:00pm 20.3 20.5 17.7 85 1.6 S 13 20 7 11 1009.8 1009.6 0.0
23/02:30pm 20.2 20.0 17.6 85 1.6 S 15 22 8 12 1010.1 1009.9 0.0
23/02:00pm 20.1 19.9 17.7 86 1.5 S 15 22 8 12 1010.0 1009.8 0.0
23/01:30pm 20.1 19.9 17.7 86 1.5 S 15 22 8 12 1010.2 1010.0 0.0
23/01:00pm 20.0 20.0 18.1 89 1.2 S 15 24 8 13 1010.5 1010.3 0.0
23/12:30pm 19.6 19.4 17.7 89 1.2 SSW 15 24 8 13 1010.9 1010.7 0.0
23/12:00pm 19.6 19.3 18.3 92 0.8 SSW 17 26 9 14 1011.5 1011.2 0.0
23/11:30am 19.5 19.2 18.2 92 0.8 S 17 24 9 13 1012.0 1011.8 0.0
23/11:00am 19.2 18.3 17.7 91 0.9 SSW 19 28 10 15 1012.2 1012.0 0.0
23/10:30am 19.3 18.9 18.1 93 0.7 SSW 17 24 9 13 1012.4 1012.2 0.0
23/10:00am 19.1 18.9 18.4 96 0.4 SSW 17 26 9 14 1012.4 1012.2 0.0
23/09:30am 18.5 19.4 18.3 99 0.1 SSW 11 20 6 11 1012.5 1012.3 0.0
23/09:00am 18.0 17.9 17.8 99 0.1 SW 15 26 8 14 1012.7 1012.5 87.0
23/08:30am 18.2 18.5 18.0 99 0.1 WSW 13 20 7 11 1012.9 1012.7 87.0
23/08:00am 18.4 19.2 18.2 99 0.1 WSW 11 15 6 8 1012.9 1012.7 87.0

Other Formats:

Comma delimited format used in spreadsheet applications
http://www.bom.gov.au/fwo/IDN60801/IDN60801.95940.axf

JavaScript Object Notation format (JSON) in row-major order
http://www.bom.gov.au/fwo/IDN60801/IDN60801.95940.json